createdAt,value
2022-08-21T00:01:55.428Z,15.39
2022-08-21T00:04:14.542Z,15.36
2022-08-21T00:06:38.071Z,15.28
2022-08-21T00:08:55.130Z,15.24
2022-08-21T00:11:12.299Z,15.18
2022-08-21T00:13:29.428Z,15.14
2022-08-21T00:15:46.763Z,15.11
2022-08-21T00:18:03.766Z,15.03
2022-08-21T00:20:21.777Z,15.01
2022-08-21T00:22:38.820Z,14.98
2022-08-21T00:24:56.835Z,14.95
2022-08-21T00:27:14.187Z,14.97
2022-08-21T00:29:32.194Z,14.88
2022-08-21T00:31:49.499Z,14.78
2022-08-21T00:34:06.633Z,14.72
2022-08-21T00:36:23.877Z,14.61
2022-08-21T00:38:41.170Z,14.57
2022-08-21T00:40:58.135Z,14.57
2022-08-21T00:43:17.321Z,14.54
2022-08-21T00:45:34.648Z,14.53
2022-08-21T00:47:51.784Z,14.50
2022-08-21T00:50:08.763Z,14.46
2022-08-21T00:52:31.999Z,14.45
2022-08-21T00:54:48.972Z,14.43
2022-08-21T00:57:06.917Z,14.45
2022-08-21T00:59:24.172Z,14.42
2022-08-21T01:01:42.293Z,14.37
2022-08-21T01:03:59.610Z,14.32
2022-08-21T01:06:16.704Z,14.26
2022-08-21T01:08:33.639Z,14.20
2022-08-21T01:10:51.125Z,14.16
2022-08-21T01:13:12.125Z,14.13
2022-08-21T01:15:30.538Z,14.14
2022-08-21T01:17:48.512Z,14.12
2022-08-21T01:20:06.605Z,14.07
2022-08-21T01:22:26.029Z,14.08
2022-08-21T01:24:44.365Z,14.08
2022-08-21T01:27:01.436Z,14.05
2022-08-21T01:29:18.730Z,14.02
2022-08-21T01:31:35.680Z,14.00
2022-08-21T01:33:52.935Z,14.02
2022-08-21T01:36:10.116Z,13.93
2022-08-21T01:38:27.399Z,13.94
2022-08-21T01:40:45.910Z,13.88
2022-08-21T01:43:03.193Z,13.80
2022-08-21T01:45:20.548Z,13.74
2022-08-21T01:47:37.641Z,13.69
2022-08-21T01:49:54.667Z,13.66
2022-08-21T01:52:12.061Z,13.65
2022-08-21T01:54:30.111Z,13.61
2022-08-21T01:56:49.849Z,13.63
2022-08-21T01:59:06.789Z,13.66
2022-08-21T02:01:23.853Z,13.63
2022-08-21T02:03:41.208Z,13.59
2022-08-21T02:05:58.452Z,13.55
2022-08-21T02:08:15.683Z,13.50
2022-08-21T02:10:33.512Z,13.44
2022-08-21T02:12:50.529Z,13.39
2022-08-21T02:15:07.642Z,13.39
2022-08-21T02:17:24.612Z,13.36
2022-08-21T02:19:41.952Z,13.33
2022-08-21T02:21:59.282Z,13.34
2022-08-21T02:24:16.657Z,13.34
2022-08-21T02:26:34.077Z,13.34
2022-08-21T02:28:51.226Z,13.37
2022-08-21T02:31:08.271Z,13.32
2022-08-21T02:33:25.574Z,13.28
2022-08-21T02:35:43.200Z,13.24
2022-08-21T02:38:00.241Z,13.14
2022-08-21T02:40:18.325Z,13.16
2022-08-21T02:42:37.748Z,13.17
2022-08-21T02:44:56.099Z,13.08
2022-08-21T02:47:13.065Z,13.04
2022-08-21T02:49:30.108Z,12.98
2022-08-21T02:51:47.250Z,12.98
2022-08-21T02:54:05.522Z,12.95
2022-08-21T02:56:22.655Z,12.92
2022-08-21T02:58:41.010Z,12.87
2022-08-21T03:00:58.018Z,12.82
2022-08-21T03:03:15.429Z,12.80
2022-08-21T03:05:32.582Z,12.79
2022-08-21T03:07:49.523Z,12.76
2022-08-21T03:10:06.521Z,12.73
2022-08-21T03:12:23.800Z,12.67
2022-08-21T03:14:43.027Z,12.62
2022-08-21T03:17:00.108Z,12.59
2022-08-21T03:19:17.195Z,12.67
2022-08-21T03:21:34.267Z,12.70
2022-08-21T03:23:51.605Z,12.69
2022-08-21T03:26:08.924Z,12.67
2022-08-21T03:28:26.156Z,12.59
2022-08-21T03:30:43.284Z,12.55
2022-08-21T03:33:01.704Z,12.50
2022-08-21T03:35:19.061Z,12.51
2022-08-21T03:37:36.141Z,12.49
2022-08-21T03:39:54.015Z,12.54
2022-08-21T03:42:11.340Z,12.53
2022-08-21T03:44:28.742Z,12.52
2022-08-21T03:46:46.083Z,12.50
2022-08-21T03:49:03.484Z,12.40
2022-08-21T03:51:20.807Z,12.37
2022-08-21T03:53:37.804Z,12.42
2022-08-21T03:55:55.094Z,12.38
2022-08-21T03:58:16.704Z,12.33
2022-08-21T04:00:34.572Z,12.32
2022-08-21T04:02:52.136Z,12.30
2022-08-21T04:05:09.340Z,12.28
2022-08-21T04:07:26.669Z,12.22
2022-08-21T04:09:44.001Z,12.11
2022-08-21T04:12:01.192Z,12.06
2022-08-21T04:14:18.326Z,12.05
2022-08-21T04:16:36.558Z,12.07
2022-08-21T04:18:53.894Z,12.08
2022-08-21T04:21:10.921Z,12.09
2022-08-21T04:23:28.204Z,12.06
2022-08-21T04:25:45.252Z,12.02
2022-08-21T04:28:02.794Z,12.09
2022-08-21T04:30:19.901Z,12.02
2022-08-21T04:32:38.125Z,12.00
2022-08-21T04:34:55.475Z,11.96
2022-08-21T04:37:13.440Z,11.87
2022-08-21T04:39:30.478Z,11.85
2022-08-21T04:41:48.780Z,11.82
2022-08-21T04:44:06.041Z,11.83
2022-08-21T04:46:23.075Z,11.85
2022-08-21T04:48:40.035Z,11.86
2022-08-21T04:50:57.054Z,11.88
2022-08-21T04:53:14.353Z,11.85
2022-08-21T04:55:31.385Z,11.84
2022-08-21T04:57:49.235Z,11.89
2022-08-21T05:00:07.814Z,11.85
2022-08-21T05:02:31.729Z,11.81
2022-08-21T05:04:50.589Z,11.78
2022-08-21T05:07:08.887Z,11.77
2022-08-21T05:09:26.114Z,11.80
2022-08-21T05:11:44.185Z,11.85
2022-08-21T05:14:01.187Z,11.82
2022-08-21T05:16:37.368Z,11.85
2022-08-21T05:18:54.873Z,11.90
2022-08-21T05:21:11.912Z,11.89
2022-08-21T05:23:29.244Z,11.91
2022-08-21T05:25:46.562Z,11.94
2022-08-21T05:28:05.835Z,11.97
2022-08-21T05:30:24.419Z,11.96
2022-08-21T05:32:41.465Z,11.96
2022-08-21T05:35:00.129Z,11.97
2022-08-21T05:37:17.415Z,11.97
2022-08-21T05:40:20.207Z,12.03
2022-08-21T05:42:11.918Z,12.01
2022-08-21T05:44:28.944Z,12.00
2022-08-21T05:46:47.292Z,12.04
2022-08-21T05:49:04.630Z,12.05
2022-08-21T05:51:22.870Z,12.14
2022-08-21T05:53:39.938Z,12.18
2022-08-21T05:55:57.211Z,12.19
2022-08-21T05:58:15.246Z,12.33
2022-08-21T06:00:32.204Z,12.32
2022-08-21T06:02:49.272Z,12.31
2022-08-21T06:05:06.304Z,12.32
2022-08-21T06:07:23.347Z,12.37
2022-08-21T06:09:40.252Z,12.44
2022-08-21T06:11:57.278Z,12.54
2022-08-21T06:14:14.616Z,12.64
2022-08-21T06:16:32.708Z,12.84
2022-08-21T06:18:50.466Z,13.01
2022-08-21T06:21:08.584Z,13.18
2022-08-21T06:23:33.119Z,13.31
2022-08-21T06:25:51.450Z,13.52
2022-08-21T06:28:08.667Z,13.68
2022-08-21T06:30:25.858Z,13.77
2022-08-21T06:32:43.886Z,13.96
2022-08-21T06:35:00.920Z,14.13
2022-08-21T06:37:18.282Z,14.29
2022-08-21T06:39:35.477Z,14.46
2022-08-21T06:41:53.510Z,14.61
2022-08-21T06:44:10.686Z,14.79
2022-08-21T06:46:27.952Z,14.95
2022-08-21T06:48:45.284Z,15.07
2022-08-21T06:51:02.254Z,15.20
2022-08-21T06:53:19.610Z,15.32
2022-08-21T06:55:37.018Z,15.46
2022-08-21T06:57:54.282Z,15.60
2022-08-21T07:00:11.576Z,15.72
2022-08-21T07:02:29.909Z,15.85
2022-08-21T07:04:46.952Z,15.96
2022-08-21T07:07:04.202Z,16.09
2022-08-21T07:09:24.498Z,16.23
2022-08-21T07:11:44.162Z,16.40
2022-08-21T07:14:04.729Z,16.55
2022-08-21T07:16:21.767Z,16.71
2022-08-21T07:18:38.863Z,16.85
2022-08-21T07:20:55.919Z,17.04
2022-08-21T07:23:13.177Z,17.20
2022-08-21T07:25:30.430Z,17.33
2022-08-21T07:27:47.685Z,17.52
2022-08-21T07:30:04.939Z,17.69
2022-08-21T07:32:22.047Z,17.84
2022-08-21T07:34:39.097Z,18.05
2022-08-21T07:36:56.134Z,18.25
2022-08-21T07:39:13.224Z,18.42
2022-08-21T07:41:30.274Z,18.61
2022-08-21T07:43:47.609Z,18.80
2022-08-21T07:46:05.173Z,18.95
2022-08-21T07:48:24.960Z,19.05
2022-08-21T07:50:42.038Z,19.20
2022-08-21T07:52:59.324Z,19.40
2022-08-21T07:55:16.692Z,19.59
2022-08-21T07:57:34.000Z,19.77
2022-08-21T07:59:51.018Z,19.99
2022-08-21T08:02:08.359Z,20.20
2022-08-21T08:04:26.663Z,20.41
2022-08-21T08:06:44.055Z,20.58
2022-08-21T08:09:01.960Z,20.77
2022-08-21T08:11:19.196Z,20.94
2022-08-21T08:13:36.535Z,21.12
2022-08-21T08:15:53.607Z,21.29
2022-08-21T08:18:10.853Z,21.51
2022-08-21T08:20:28.852Z,21.69
2022-08-21T08:22:50.263Z,21.87
2022-08-21T08:25:09.412Z,22.05
2022-08-21T08:27:26.764Z,22.22
2022-08-21T08:29:43.712Z,22.44
2022-08-21T08:32:01.032Z,22.62
2022-08-21T08:34:25.733Z,22.84
2022-08-21T08:36:44.337Z,23.05
2022-08-21T08:39:01.414Z,23.16
2022-08-21T08:41:18.456Z,23.36
2022-08-21T08:43:35.406Z,23.54
2022-08-21T08:45:52.673Z,23.67
2022-08-21T08:48:14.254Z,23.77
2022-08-21T08:50:31.834Z,24.26
2022-08-21T08:52:48.855Z,24.17
2022-08-21T08:55:06.094Z,24.31
2022-08-21T08:57:23.164Z,24.48
2022-08-21T08:59:40.098Z,24.36
2022-08-21T09:01:57.999Z,24.40
2022-08-21T09:04:15.291Z,24.36
2022-08-21T09:06:32.159Z,24.34
2022-08-21T09:08:49.392Z,24.48
2022-08-21T09:11:06.396Z,24.56
2022-08-21T09:13:23.414Z,24.30
2022-08-21T09:15:40.647Z,24.15
2022-08-21T09:17:57.675Z,24.43
2022-08-21T09:20:14.711Z,24.36
2022-08-21T09:22:31.744Z,24.54
2022-08-21T09:24:51.979Z,24.71
2022-08-21T09:27:09.148Z,24.87
2022-08-21T09:29:27.425Z,25.10
2022-08-21T09:31:45.580Z,25.33
2022-08-21T09:34:03.912Z,25.64
2022-08-21T09:36:21.210Z,25.43
2022-08-21T09:38:38.517Z,25.60
2022-08-21T09:40:55.496Z,25.80
2022-08-21T09:43:13.773Z,26.05
2022-08-21T09:45:33.779Z,26.48
2022-08-21T09:47:51.792Z,26.41
2022-08-21T09:50:09.069Z,26.54
2022-08-21T09:52:27.143Z,26.30
2022-08-21T09:54:44.442Z,26.33
2022-08-21T09:57:01.499Z,26.17
2022-08-21T09:59:18.500Z,26.41
2022-08-21T10:01:36.461Z,26.53
2022-08-21T10:03:53.449Z,26.75
2022-08-21T10:06:10.484Z,26.82
2022-08-21T10:08:27.573Z,26.90
2022-08-21T10:10:46.147Z,26.66
2022-08-21T10:13:03.228Z,26.18
2022-08-21T10:15:20.535Z,25.92
2022-08-21T10:17:37.599Z,25.78
2022-08-21T10:19:55.583Z,25.70
2022-08-21T10:22:13.617Z,25.89
2022-08-21T10:24:32.044Z,26.12
2022-08-21T10:26:49.217Z,25.94
2022-08-21T10:29:06.264Z,25.85
2022-08-21T10:31:23.608Z,25.85
2022-08-21T10:33:40.644Z,26.14
2022-08-21T10:35:58.725Z,26.55
2022-08-21T10:38:39.394Z,26.91
2022-08-21T10:40:54.090Z,27.19
2022-08-21T10:43:12.190Z,27.23
2022-08-21T10:45:29.599Z,27.27
2022-08-21T10:47:47.134Z,27.45
2022-08-21T10:50:04.321Z,27.50
2022-08-21T10:52:22.643Z,27.45
2022-08-21T10:54:40.557Z,27.59
2022-08-21T10:56:57.538Z,27.36
2022-08-21T10:59:17.411Z,27.04
2022-08-21T11:01:34.474Z,26.69
2022-08-21T11:03:54.691Z,26.59
2022-08-21T11:06:14.159Z,26.43
2022-08-21T11:08:31.249Z,26.21
2022-08-21T11:10:57.738Z,25.93
2022-08-21T11:13:17.488Z,25.83
2022-08-21T11:15:34.830Z,25.79
2022-08-21T11:17:54.589Z,25.78
2022-08-21T11:20:11.485Z,25.76
2022-08-21T11:22:28.528Z,25.78
2022-08-21T11:24:45.627Z,25.91
2022-08-21T11:27:02.895Z,25.90
2022-08-21T11:29:19.973Z,26.16
2022-08-21T11:31:37.430Z,26.56
2022-08-21T11:33:55.563Z,26.78
2022-08-21T11:36:12.758Z,26.58
2022-08-21T11:38:31.676Z,26.65
2022-08-21T11:40:48.805Z,26.68
2022-08-21T11:43:05.730Z,26.77
2022-08-21T11:45:23.199Z,26.66
2022-08-21T11:47:44.652Z,26.58
2022-08-21T11:50:03.210Z,26.51
2022-08-21T11:52:21.106Z,26.58
2022-08-21T11:54:38.404Z,26.99
2022-08-21T11:56:55.471Z,27.23
2022-08-21T11:59:13.491Z,27.05
2022-08-21T12:01:36.789Z,26.88
2022-08-21T12:03:54.796Z,26.97
2022-08-21T12:06:12.163Z,27.33
2022-08-21T12:08:29.108Z,27.55
2022-08-21T12:10:46.683Z,27.68
2022-08-21T12:13:03.623Z,27.59
2022-08-21T12:15:22.902Z,27.67
2022-08-21T12:17:39.969Z,28.04
2022-08-21T12:19:57.448Z,28.25
2022-08-21T12:22:16.418Z,28.50
2022-08-21T12:24:33.869Z,28.57
2022-08-21T12:26:51.027Z,28.92
2022-08-21T12:29:08.255Z,29.00
2022-08-21T12:31:25.336Z,29.31
2022-08-21T12:33:42.391Z,29.10
2022-08-21T12:36:00.709Z,28.97
2022-08-21T12:38:17.679Z,28.84
2022-08-21T12:40:34.752Z,28.77
2022-08-21T12:43:00.344Z,28.82
2022-08-21T12:45:17.576Z,28.87
2022-08-21T12:47:34.970Z,28.99
2022-08-21T12:49:52.976Z,28.97
2022-08-21T12:52:09.951Z,29.04
2022-08-21T12:54:27.086Z,29.11
2022-08-21T12:56:44.160Z,29.10
2022-08-21T12:59:01.477Z,29.12
2022-08-21T13:01:18.779Z,29.13
2022-08-21T13:03:36.025Z,29.22
2022-08-21T13:05:53.238Z,29.34
2022-08-21T13:08:10.171Z,29.39
2022-08-21T13:10:27.225Z,29.30
2022-08-21T13:12:44.294Z,28.97
2022-08-21T13:15:03.288Z,28.75
2022-08-21T13:17:23.421Z,28.75
2022-08-21T13:19:42.995Z,29.09
2022-08-21T13:22:00.040Z,29.14
2022-08-21T13:24:39.103Z,29.22
2022-08-21T13:26:54.261Z,29.69
2022-08-21T13:29:11.556Z,29.83
2022-08-21T13:31:30.664Z,29.99
2022-08-21T13:33:47.557Z,29.97
2022-08-21T13:36:04.534Z,29.87
2022-08-21T13:38:27.299Z,29.96
2022-08-21T13:40:44.753Z,30.23
2022-08-21T13:43:02.689Z,30.39
2022-08-21T13:45:19.961Z,30.36
2022-08-21T13:47:36.931Z,30.10
2022-08-21T13:49:58.976Z,29.87
2022-08-21T13:52:17.381Z,29.88
2022-08-21T13:54:34.462Z,30.04
2022-08-21T13:56:51.792Z,30.11
2022-08-21T13:59:09.144Z,30.28
2022-08-21T14:01:26.249Z,30.38
2022-08-21T14:03:43.547Z,30.48
2022-08-21T14:06:01.488Z,30.79
2022-08-21T14:08:18.857Z,30.69
2022-08-21T14:10:37.892Z,30.77
2022-08-21T14:12:55.257Z,30.56
2022-08-21T14:15:13.240Z,30.59
2022-08-21T14:17:33.782Z,30.42
2022-08-21T14:19:50.817Z,30.26
2022-08-21T14:22:07.958Z,30.19
2022-08-21T14:24:24.874Z,30.34
2022-08-21T14:26:41.951Z,30.36
2022-08-21T14:28:59.236Z,30.34
2022-08-21T14:31:18.733Z,30.43
2022-08-21T14:33:36.547Z,30.61
2022-08-21T14:35:54.612Z,30.67
2022-08-21T14:38:11.874Z,30.67
2022-08-21T14:40:28.910Z,30.52
2022-08-21T14:42:45.934Z,30.75
2022-08-21T14:45:03.179Z,30.27
2022-08-21T14:47:20.231Z,30.00
2022-08-21T14:49:37.242Z,29.91
2022-08-21T14:51:54.687Z,29.94
2022-08-21T14:54:11.885Z,29.65
2022-08-21T14:56:29.946Z,29.48
2022-08-21T14:58:46.964Z,29.53
2022-08-21T15:01:05.125Z,29.74
2022-08-21T15:03:22.259Z,29.85
2022-08-21T15:05:39.280Z,29.99
2022-08-21T15:07:56.579Z,30.26
2022-08-21T15:10:13.820Z,30.49
2022-08-21T15:12:30.861Z,30.53
2022-08-21T15:14:47.917Z,30.55
2022-08-21T15:17:04.897Z,30.41
2022-08-21T15:19:21.914Z,30.36
2022-08-21T15:21:38.862Z,30.25
2022-08-21T15:23:55.929Z,30.26
2022-08-21T15:26:13.228Z,30.07
2022-08-21T15:28:31.612Z,30.15
2022-08-21T15:30:49.230Z,29.98
2022-08-21T15:33:06.582Z,29.75
2022-08-21T15:35:24.398Z,29.47
2022-08-21T15:37:42.164Z,29.40
2022-08-21T15:39:59.611Z,29.48
2022-08-21T15:42:16.864Z,29.68
2022-08-21T15:44:34.909Z,29.76
2022-08-21T15:46:52.984Z,29.84
2022-08-21T15:49:10.182Z,29.97
2022-08-21T15:51:27.600Z,29.86
2022-08-21T15:53:45.670Z,29.75
2022-08-21T15:56:04.758Z,29.65
2022-08-21T15:58:22.790Z,29.40
2022-08-21T16:00:40.027Z,29.14
2022-08-21T16:02:59.220Z,28.97
2022-08-21T16:05:16.635Z,28.71
2022-08-21T16:07:34.724Z,28.57
2022-08-21T16:09:51.791Z,28.43
2022-08-21T16:12:08.859Z,28.35
2022-08-21T16:14:26.156Z,28.36
2022-08-21T16:16:45.351Z,28.28
2022-08-21T16:19:02.586Z,28.05
2022-08-21T16:21:20.542Z,27.90
2022-08-21T16:23:39.601Z,27.73
2022-08-21T16:25:56.884Z,27.66
2022-08-21T16:28:14.437Z,27.46
2022-08-21T16:30:32.784Z,27.51
2022-08-21T16:32:50.009Z,27.47
2022-08-21T16:35:07.973Z,27.41
2022-08-21T16:37:26.004Z,27.36
2022-08-21T16:39:43.357Z,27.32
2022-08-21T16:42:00.418Z,27.20
2022-08-21T16:44:17.678Z,27.23
2022-08-21T16:46:35.023Z,27.24
2022-08-21T16:48:51.955Z,27.18
2022-08-21T16:51:09.212Z,27.20
2022-08-21T16:53:28.076Z,27.21
2022-08-21T16:55:45.350Z,27.15
2022-08-21T16:58:02.387Z,27.06
2022-08-21T17:00:19.355Z,27.16
2022-08-21T17:02:36.413Z,27.33
2022-08-21T17:04:53.428Z,27.43
2022-08-21T17:07:10.560Z,27.29
2022-08-21T17:09:27.508Z,27.26
2022-08-21T17:11:46.170Z,27.09
2022-08-21T17:14:04.176Z,26.92
2022-08-21T17:16:22.270Z,26.76
2022-08-21T17:18:39.442Z,26.69
2022-08-21T17:20:56.476Z,26.67
2022-08-21T17:23:14.479Z,26.55
2022-08-21T17:25:32.737Z,26.44
2022-08-21T17:27:51.044Z,26.31
2022-08-21T17:30:08.379Z,26.22
2022-08-21T17:32:26.669Z,26.18
2022-08-21T17:34:43.727Z,26.02
2022-08-21T17:37:00.763Z,25.98
2022-08-21T17:39:22.515Z,25.91
2022-08-21T17:41:43.727Z,25.83
2022-08-21T17:44:01.055Z,25.75
2022-08-21T17:46:18.116Z,25.81
2022-08-21T17:48:35.185Z,25.73
2022-08-21T17:50:52.595Z,25.60
2022-08-21T17:53:11.031Z,25.49
2022-08-21T17:55:30.480Z,25.28
2022-08-21T17:57:47.709Z,25.16
2022-08-21T18:00:05.819Z,25.11
2022-08-21T18:02:22.756Z,24.91
2022-08-21T18:04:39.695Z,24.78
2022-08-21T18:06:58.599Z,24.65
2022-08-21T18:09:20.434Z,24.57
2022-08-21T18:11:37.550Z,24.46
2022-08-21T18:13:55.006Z,24.40
2022-08-21T18:16:12.044Z,24.32
2022-08-21T18:18:29.368Z,24.24
2022-08-21T18:20:47.621Z,24.16
2022-08-21T18:23:04.665Z,24.07
2022-08-21T18:25:21.995Z,23.90
2022-08-21T18:27:40.382Z,23.79
2022-08-21T18:29:57.751Z,23.71
2022-08-21T18:32:30.495Z,23.63
2022-08-21T18:34:48.354Z,23.55
2022-08-21T18:37:05.447Z,23.46
2022-08-21T18:39:38.238Z,23.40
2022-08-21T18:41:55.430Z,23.34
2022-08-21T18:44:12.488Z,23.22
2022-08-21T18:46:29.791Z,23.11
2022-08-21T18:48:47.214Z,23.06
2022-08-21T18:51:05.504Z,22.96
2022-08-21T18:53:27.946Z,22.87
2022-08-21T18:55:46.208Z,22.79
2022-08-21T18:58:07.385Z,22.68
2022-08-21T19:00:25.747Z,22.57
2022-08-21T19:02:44.075Z,22.47
2022-08-21T19:07:18.225Z,22.32
2022-08-21T19:09:36.639Z,22.29
2022-08-21T19:11:53.666Z,22.23
2022-08-21T19:14:13.068Z,22.14
2022-08-21T19:16:32.912Z,22.08
2022-08-21T19:18:51.003Z,22.04
2022-08-21T19:21:08.092Z,21.95
2022-08-21T19:23:29.243Z,21.88
2022-08-21T19:25:46.959Z,21.82
2022-08-21T19:28:10.897Z,21.82
2022-08-21T19:30:28.936Z,21.81
2022-08-21T19:32:45.927Z,21.79
2022-08-21T19:35:05.379Z,21.65
2022-08-21T19:37:23.053Z,21.66
2022-08-21T19:39:45.047Z,21.66
2022-08-21T19:42:05.848Z,21.64
2022-08-21T19:44:27.277Z,21.65
2022-08-21T19:46:45.177Z,21.57
2022-08-21T19:49:02.312Z,21.54
2022-08-21T19:51:19.526Z,21.48
2022-08-21T19:53:37.001Z,21.40
2022-08-21T19:55:54.275Z,21.33
2022-08-21T19:58:12.462Z,21.26
2022-08-21T20:00:31.231Z,21.24
2022-08-21T20:02:49.250Z,21.18
2022-08-21T20:05:06.342Z,21.07
2022-08-21T20:07:26.960Z,21.03
2022-08-21T20:09:44.151Z,20.95
2022-08-21T20:12:04.140Z,20.84
2022-08-21T20:14:23.707Z,20.78
2022-08-21T20:16:41.437Z,20.73
2022-08-21T20:18:58.712Z,20.71
2022-08-21T20:21:15.627Z,20.68
2022-08-21T20:23:34.176Z,20.62
2022-08-21T20:25:51.371Z,20.62
2022-08-21T20:28:08.412Z,20.58
2022-08-21T20:30:25.743Z,20.55
2022-08-21T20:32:43.473Z,20.43
2022-08-21T20:35:01.895Z,20.52
2022-08-21T20:37:22.292Z,20.59
2022-08-21T20:39:56.139Z,20.54
2022-08-21T20:42:14.435Z,20.54
2022-08-21T20:44:31.909Z,20.61
2022-08-21T20:49:26.587Z,20.65
2022-08-21T20:51:44.260Z,20.66
2022-08-21T20:54:01.469Z,20.68
2022-08-21T20:56:19.061Z,20.70
2022-08-21T20:58:36.514Z,20.68
2022-08-21T21:00:55.062Z,20.67
2022-08-21T21:03:14.572Z,20.65
2022-08-21T21:05:31.624Z,20.67
2022-08-21T21:07:49.058Z,20.70
2022-08-21T21:10:06.412Z,20.67
2022-08-21T21:12:28.136Z,20.69
2022-08-21T21:14:47.065Z,20.69
2022-08-21T21:17:04.408Z,20.69
2022-08-21T21:19:21.795Z,20.70
2022-08-21T21:21:39.070Z,20.68
2022-08-21T21:23:56.182Z,20.65
2022-08-21T21:26:15.200Z,20.58
2022-08-21T21:28:32.227Z,20.56
2022-08-21T21:30:57.769Z,20.56
2022-08-21T21:33:15.272Z,20.62
2022-08-21T21:35:36.449Z,20.61
2022-08-21T21:37:55.330Z,20.53
2022-08-21T21:40:12.302Z,20.51
2022-08-21T21:42:30.248Z,20.54
2022-08-21T21:44:47.768Z,20.50
2022-08-21T21:47:05.022Z,20.46
2022-08-21T21:49:23.026Z,20.45
2022-08-21T21:51:42.005Z,20.41
2022-08-21T21:53:59.439Z,20.39
2022-08-21T21:56:16.542Z,20.39
2022-08-21T21:58:34.547Z,20.34
2022-08-21T22:00:53.398Z,20.30
2022-08-21T22:03:13.211Z,20.30
2022-08-21T22:05:30.771Z,20.27
2022-08-21T22:07:48.126Z,20.25
2022-08-21T22:10:19.639Z,20.27
2022-08-21T22:12:49.818Z,20.30
2022-08-21T22:15:07.547Z,20.26
2022-08-21T22:17:25.880Z,20.14
2022-08-21T22:19:43.152Z,20.16
2022-08-21T22:22:02.482Z,20.22
2022-08-21T22:24:21.898Z,20.20
2022-08-21T22:26:38.934Z,20.11
2022-08-21T22:29:05.395Z,20.03
2022-08-21T22:31:22.708Z,19.96
2022-08-21T22:33:41.074Z,19.93
2022-08-21T22:35:58.460Z,19.93
2022-08-21T22:38:15.849Z,19.92
2022-08-21T22:40:34.953Z,19.96
2022-08-21T22:42:52.655Z,19.93
2022-08-21T22:45:12.071Z,19.91
2022-08-21T22:47:29.854Z,19.84
2022-08-21T22:49:47.086Z,19.74
2022-08-21T22:52:04.945Z,19.72
2022-08-21T22:54:22.416Z,19.71
2022-08-21T22:56:39.491Z,19.76
2022-08-21T22:58:59.974Z,19.68
2022-08-21T23:01:19.275Z,19.67
2022-08-21T23:03:36.930Z,19.71
2022-08-21T23:05:55.404Z,19.80
2022-08-21T23:08:12.449Z,19.78
2022-08-21T23:10:30.353Z,19.81
2022-08-21T23:12:49.000Z,19.87
2022-08-21T23:15:09.155Z,19.94
2022-08-21T23:17:27.088Z,19.99
2022-08-21T23:19:46.077Z,20.04
2022-08-21T23:22:05.965Z,20.08
2022-08-21T23:24:26.539Z,20.08
2022-08-21T23:26:46.839Z,20.12
2022-08-21T23:29:09.313Z,20.13
2022-08-21T23:31:26.549Z,20.09
2022-08-21T23:33:43.727Z,20.04
2022-08-21T23:36:00.738Z,20.02
2022-08-21T23:38:19.906Z,19.99
2022-08-21T23:40:37.129Z,19.94
2022-08-21T23:42:54.419Z,19.88
2022-08-21T23:45:14.175Z,19.88
2022-08-21T23:47:32.266Z,19.87
2022-08-21T23:49:49.386Z,19.86
2022-08-21T23:52:11.032Z,19.80
2022-08-21T23:54:28.373Z,19.77
2022-08-21T23:56:45.448Z,19.72
2022-08-21T23:59:02.600Z,19.67
